Time;durP1;ratioP1;P1;durP2;ratioP2;P2;SDS_P1;SDS_P2;PMS_P1;PMS_P2;Temp;Humidity;BMP_temperature;BMP_pressure;BME280_temperature;BME280_humidity;BME280_pressure;Samples;Min_cycle;Max_cycle;Signal;HPM_P1;HPM_P2
2020/12/09 00:01:21;;;;;;;22.88;14.90;;;4.10;99.90;;;;;;5074336;28;20124;-59
2020/12/09 00:03:47;;;;;;;23.33;14.27;;;4.20;99.90;;;;;;5092533;28;20024;-59
2020/12/09 00:06:13;;;;;;;28.13;15.45;;;4.20;99.90;;;;;;5074126;28;20028;-59
2020/12/09 00:08:38;;;;;;;23.50;15.18;;;4.20;99.90;;;;;;5074836;28;20430;-58
2020/12/09 00:11:07;;;;;;;24.23;15.32;;;4.10;99.90;;;;;;5103444;28;20032;-59
2020/12/09 00:13:32;;;;;;;23.33;14.45;;;4.00;99.90;;;;;;5093855;28;20122;-59
2020/12/09 00:15:58;;;;;;;22.40;13.63;;;3.90;99.90;;;;;;5113144;28;20496;-59
2020/12/09 00:18:23;;;;;;;26.95;14.00;;;3.70;99.90;;;;;;5094012;28;20086;-60
2020/12/09 00:20:49;;;;;;;21.25;14.00;;;3.90;99.90;;;;;;5094213;28;20503;-59
2020/12/09 00:23:15;;;;;;;25.23;14.40;;;3.90;99.90;;;;;;5093942;28;20372;-58
2020/12/09 00:25:40;;;;;;;21.88;14.35;;;4.10;99.90;;;;;;5094459;28;20031;-58
2020/12/09 00:28:06;;;;;;;23.00;12.95;;;4.00;99.90;;;;;;5112614;28;20038;-59
2020/12/09 00:30:32;;;;;;;25.08;14.50;;;4.00;99.90;;;;;;5093890;28;20038;-59
2020/12/09 00:32:57;;;;;;;25.77;14.63;;;4.00;99.90;;;;;;5112561;28;20020;-58
2020/12/09 00:35:23;;;;;;;22.42;14.82;;;4.00;99.90;;;;;;5093760;28;20105;-58
2020/12/09 00:37:48;;;;;;;25.80;15.88;;;4.10;99.90;;;;;;5094117;28;20108;-58
2020/12/09 00:40:14;;;;;;;25.23;14.20;;;4.10;99.90;;;;;;5082372;28;20532;-59
2020/12/09 00:42:40;;;;;;;24.05;14.77;;;4.00;99.90;;;;;;5073943;28;20032;-59
2020/12/09 00:45:06;;;;;;;21.85;14.45;;;4.10;99.90;;;;;;5091959;28;20335;-59
2020/12/09 00:47:32;;;;;;;21.77;14.77;;;4.10;99.90;;;;;;5072905;28;20393;-59
2020/12/09 00:50:27;;;;;;;26.67;15.15;;;4.00;99.90;;;;;;5091847;28;20052;-59
2020/12/09 00:52:49;;;;;;;27.20;14.25;;;4.00;99.90;;;;;;5091613;28;20450;-58
2020/12/09 00:55:14;;;;;;;33.00;14.35;;;4.00;99.90;;;;;;5072803;28;20057;-59
2020/12/09 00:57:40;;;;;;;22.50;14.68;;;4.10;99.90;;;;;;5073551;28;20034;-59
2020/12/09 01:00:07;;;;;;;21.25;14.35;;;4.20;99.90;;;;;;5091598;28;20437;-59
2020/12/09 01:02:34;;;;;;;23.35;14.82;;;4.20;99.90;;;;;;5073033;28;20036;-59
2020/12/09 01:05:00;;;;;;;24.45;15.07;;;4.20;99.90;;;;;;5092294;28;20031;-59
2020/12/09 01:07:26;;;;;;;25.48;15.32;;;4.10;99.90;;;;;;5091116;28;20036;-60
2020/12/09 01:09:51;;;;;;;25.80;16.00;;;4.00;99.90;;;;;;5073534;28;20031;-60
2020/12/09 01:12:17;;;;;;;22.20;15.02;;;4.10;99.90;;;;;;5072675;28;20024;-60
2020/12/09 01:14:43;;;;;;;24.30;15.30;;;3.90;99.90;;;;;;5073321;28;20020;-59
2020/12/09 01:17:09;;;;;;;23.60;14.70;;;3.90;99.90;;;;;;5091792;28;20198;-59
2020/12/09 01:19:34;;;;;;;25.40;15.80;;;3.90;99.90;;;;;;5072675;28;20035;-58
2020/12/09 01:22:07;;;;;;;26.17;15.23;;;3.90;99.90;;;;;;5073093;28;20024;-58
2020/12/09 01:24:33;;;;;;;22.45;15.65;;;3.80;99.90;;;;;;5072536;28;20051;-58
2020/12/09 01:26:59;;;;;;;24.42;15.40;;;3.90;99.90;;;;;;5090922;28;20480;-58
2020/12/09 01:29:24;;;;;;;21.13;13.73;;;3.90;99.90;;;;;;5090562;28;20020;-59
2020/12/09 01:31:59;;;;;;;23.05;14.98;;;4.00;99.90;;;;;;5090382;28;20099;-58
2020/12/09 01:34:25;;;;;;;25.00;15.52;;;4.10;99.90;;;;;;5090799;28;20037;-58
2020/12/09 01:36:52;;;;;;;23.55;15.23;;;4.10;99.90;;;;;;5091031;28;20441;-58
2020/12/09 01:39:18;;;;;;;24.27;15.05;;;4.10;99.90;;;;;;5074529;28;20464;-59
2020/12/09 01:41:44;;;;;;;24.77;15.52;;;4.00;99.90;;;;;;5092963;28;20028;-58
2020/12/09 01:44:10;;;;;;;23.48;14.45;;;4.10;99.90;;;;;;5093120;28;20031;-58
2020/12/09 01:46:36;;;;;;;20.40;14.77;;;4.00;99.90;;;;;;5092387;28;20088;-59
2020/12/09 01:49:02;;;;;;;24.38;15.18;;;4.00;99.90;;;;;;5111460;28;20062;-58
2020/12/09 01:51:29;;;;;;;24.80;14.55;;;3.90;99.90;;;;;;5110692;28;20429;-58
2020/12/09 01:53:57;;;;;;;25.23;15.88;;;4.00;99.90;;;;;;5093002;28;20019;-58
2020/12/09 01:56:23;;;;;;;21.83;14.65;;;4.10;99.90;;;;;;5110408;28;20019;-59
2020/12/09 01:58:50;;;;;;;24.55;15.85;;;4.10;99.90;;;;;;5092858;28;20031;-58
2020/12/09 02:01:17;;;;;;;19.48;13.65;;;4.00;99.90;;;;;;5111349;28;20028;-66
2020/12/09 02:03:42;;;;;;;26.85;16.02;;;4.00;99.90;;;;;;5110930;28;20027;-58
2020/12/09 02:06:08;;;;;;;24.38;15.27;;;3.90;99.90;;;;;;5092966;28;20464;-58
2020/12/09 02:08:34;;;;;;;22.10;14.40;;;4.00;99.90;;;;;;5110338;28;20088;-59
2020/12/09 02:11:01;;;;;;;21.05;14.50;;;4.00;99.90;;;;;;5111261;28;20024;-58
2020/12/09 02:13:30;;;;;;;25.17;15.13;;;4.00;99.90;;;;;;5110358;28;20032;-59
2020/12/09 02:16:00;;;;;;;25.02;16.13;;;4.00;99.90;;;;;;5111492;28;20127;-59
2020/12/09 02:18:27;;;;;;;20.95;13.63;;;4.10;99.90;;;;;;5092255;28;20032;-59
2020/12/09 02:20:53;;;;;;;26.92;15.25;;;4.20;99.90;;;;;;5092716;28;20031;-59
2020/12/09 02:23:18;;;;;;;24.10;15.85;;;4.00;99.90;;;;;;5110492;28;20502;-59
2020/12/09 02:25:47;;;;;;;23.50;15.43;;;3.90;99.90;;;;;;5110871;28;20125;-58
2020/12/09 02:28:13;;;;;;;22.02;14.23;;;3.90;99.90;;;;;;5110659;28;20475;-58
2020/12/09 02:30:38;;;;;;;23.67;14.80;;;3.80;99.90;;;;;;5110571;28;20066;-59
2020/12/09 02:33:04;;;;;;;25.17;14.30;;;3.80;99.90;;;;;;5111207;28;20488;-59
2020/12/09 02:35:30;;;;;;;23.83;15.63;;;3.60;99.90;;;;;;5110492;28;20051;-59
2020/12/09 02:37:56;;;;;;;31.77;18.00;;;3.60;99.90;;;;;;5092579;28;20039;-59
2020/12/09 02:40:22;;;;;;;24.92;15.85;;;3.60;99.90;;;;;;5091706;28;20036;-59
2020/12/09 02:42:48;;;;;;;24.45;15.43;;;3.60;99.90;;;;;;5093619;28;20507;-59
2020/12/09 02:45:14;;;;;;;26.40;15.35;;;3.70;99.90;;;;;;5114973;28;20027;-59
2020/12/09 02:47:40;;;;;;;24.15;16.20;;;3.70;99.90;;;;;;5095661;28;20042;-59
2020/12/09 02:50:06;;;;;;;25.73;15.68;;;3.60;99.90;;;;;;5114640;28;20052;-59
2020/12/09 02:52:32;;;;;;;23.23;14.43;;;3.70;99.90;;;;;;5095746;28;20024;-59
2020/12/09 02:54:57;;;;;;;25.35;16.80;;;3.60;99.90;;;;;;5114479;28;20096;-58
2020/12/09 02:57:23;;;;;;;22.38;14.00;;;3.60;99.90;;;;;;5095510;28;20027;-60
2020/12/09 02:59:48;;;;;;;25.75;13.98;;;3.60;99.90;;;;;;5096161;28;20024;-59
2020/12/09 03:02:14;;;;;;;24.63;15.20;;;3.60;99.90;;;;;;5114412;28;20028;-58
2020/12/09 03:04:40;;;;;;;23.02;15.00;;;3.60;99.90;;;;;;5095538;28;20023;-58
2020/12/09 03:07:05;;;;;;;22.20;15.68;;;3.70;99.90;;;;;;5095883;28;20082;-58
2020/12/09 03:09:31;;;;;;;24.00;15.23;;;3.70;99.90;;;;;;5095328;28;20031;-59
2020/12/09 03:11:57;;;;;;;23.42;16.05;;;3.70;99.90;;;;;;5095625;28;20027;-59
2020/12/09 03:14:22;;;;;;;21.10;14.05;;;3.70;99.90;;;;;;5095355;28;20023;-58
2020/12/09 03:16:48;;;;;;;26.05;15.35;;;3.70;99.90;;;;;;5095813;28;20050;-58
2020/12/09 03:19:14;;;;;;;25.88;14.70;;;3.60;99.90;;;;;;5095633;28;20106;-59
2020/12/09 03:21:40;;;;;;;25.83;15.50;;;3.40;99.90;;;;;;5095068;28;20402;-59
2020/12/09 03:24:07;;;;;;;21.05;13.63;;;3.50;99.90;;;;;;5095916;28;20384;-58
2020/12/09 03:26:32;;;;;;;27.08;15.60;;;3.50;99.90;;;;;;5095085;28;20038;-58
2020/12/09 03:28:58;;;;;;;22.42;14.48;;;3.50;99.90;;;;;;5113620;28;20095;-59
2020/12/09 03:31:24;;;;;;;23.73;15.27;;;3.50;99.90;;;;;;5095257;28;20024;-58
2020/12/09 03:33:49;;;;;;;22.55;14.60;;;3.60;99.90;;;;;;5095461;28;20072;-59
2020/12/09 03:36:15;;;;;;;24.10;14.60;;;3.50;99.90;;;;;;5095312;28;20028;-60
2020/12/09 03:38:41;;;;;;;24.92;15.07;;;3.60;99.90;;;;;;5094818;28;20246;-59
2020/12/09 03:41:06;;;;;;;22.02;14.40;;;3.70;99.90;;;;;;5113188;28;20534;-58
2020/12/09 03:43:32;;;;;;;22.55;14.50;;;3.70;99.90;;;;;;5094025;28;20539;-58
2020/12/09 03:45:58;;;;;;;27.20;15.05;;;3.80;99.90;;;;;;5113631;28;20058;-58
2020/12/09 03:48:23;;;;;;;22.45;15.45;;;3.70;99.90;;;;;;5094306;28;20031;-58
2020/12/09 03:50:49;;;;;;;24.38;15.05;;;3.70;99.90;;;;;;5112985;28;20047;-58
2020/12/09 03:53:15;;;;;;;24.83;15.73;;;3.80;99.90;;;;;;5113240;28;20039;-58
2020/12/09 03:55:40;;;;;;;25.67;15.07;;;3.90;99.90;;;;;;5093944;28;20119;-62
2020/12/09 03:58:06;;;;;;;26.48;15.48;;;3.80;99.90;;;;;;5096397;28;20039;-59
2020/12/09 04:00:32;;;;;;;23.95;14.90;;;3.60;99.90;;;;;;5114189;28;20108;-59
2020/12/09 04:02:57;;;;;;;26.05;15.75;;;3.50;99.90;;;;;;5095299;28;20476;-65
2020/12/09 04:05:24;;;;;;;31.75;18.83;;;3.60;99.90;;;;;;5094525;28;20063;-66
2020/12/09 04:07:50;;;;;;;27.15;15.85;;;3.50;99.90;;;;;;5094861;28;20028;-58
2020/12/09 04:10:16;;;;;;;28.05;16.00;;;3.50;99.90;;;;;;5102735;28;20028;-60
2020/12/09 04:12:42;;;;;;;30.55;17.55;;;3.50;99.90;;;;;;5074128;28;20040;-59
2020/12/09 04:15:08;;;;;;;26.15;15.32;;;3.70;99.90;;;;;;5092983;28;20409;-58
2020/12/09 04:17:33;;;;;;;30.85;17.63;;;3.80;99.90;;;;;;5074099;28;20162;-60
2020/12/09 04:19:59;;;;;;;24.15;15.07;;;3.80;99.90;;;;;;5074604;28;20070;-58
2020/12/09 04:22:25;;;;;;;27.23;17.48;;;3.70;99.90;;;;;;5091782;28;20418;-59
2020/12/09 04:24:51;;;;;;;23.95;15.13;;;3.70;99.90;;;;;;5092371;28;20035;-58
2020/12/09 04:27:16;;;;;;;28.50;16.77;;;3.90;99.90;;;;;;5073888;28;20478;-58
2020/12/09 04:29:42;;;;;;;26.60;17.08;;;3.60;99.90;;;;;;5091622;28;20473;-59
2020/12/09 04:32:08;;;;;;;25.80;16.73;;;3.50;99.90;;;;;;5092657;28;20038;-60
2020/12/09 04:34:34;;;;;;;28.15;17.98;;;3.60;99.90;;;;;;5073731;28;20393;-59
2020/12/09 04:37:00;;;;;;;27.50;16.13;;;3.40;99.90;;;;;;5074117;28;20119;-60
2020/12/09 04:39:27;;;;;;;29.48;17.25;;;3.40;99.90;;;;;;5095431;28;20026;-59
2020/12/09 04:41:53;;;;;;;26.10;17.20;;;3.40;99.90;;;;;;5095639;28;20039;-59
2020/12/09 04:44:19;;;;;;;27.48;17.10;;;3.40;99.90;;;;;;5112956;28;20028;-59
2020/12/09 04:46:49;;;;;;;32.97;18.40;;;3.40;99.90;;;;;;5094010;28;20122;-59
2020/12/09 04:49:23;;;;;;;26.90;17.80;;;3.40;99.90;;;;;;5093960;28;20392;-60
2020/12/09 04:52:27;;;;;;;28.30;16.90;;;3.50;99.90;;;;;;5093573;28;20081;-60
2020/12/09 04:55:07;;;;;;;32.28;17.98;;;3.40;99.90;;;;;;5112270;28;20460;-61
2020/12/09 04:57:53;;;;;;;28.90;17.35;;;3.40;99.90;;;;;;5081015;28;20117;-58
2020/12/09 05:00:19;;;;;;;28.13;17.30;;;3.30;99.90;;;;;;5074053;28;20028;-60
2020/12/09 05:02:52;;;;;;;28.60;18.80;;;3.40;99.90;;;;;;5073393;28;20048;-59
2020/12/09 05:05:23;;;;;;;27.63;17.77;;;3.40;99.90;;;;;;5073439;28;20070;-60
2020/12/09 05:07:53;;;;;;;33.20;19.40;;;3.30;99.90;;;;;;5090934;28;20023;-60
2020/12/09 05:10:21;;;;;;;30.10;17.42;;;3.40;99.90;;;;;;5073364;28;20032;-59
2020/12/09 05:12:49;;;;;;;30.02;19.05;;;3.40;99.90;;;;;;5091216;28;20197;-60
2020/12/09 05:15:24;;;;;;;30.23;19.20;;;3.40;99.90;;;;;;5073312;28;20024;-57
2020/12/09 05:18:00;;;;;;;24.77;16.70;;;3.50;99.90;;;;;;5090884;28;20527;-58
2020/12/09 05:20:38;;;;;;;27.10;17.70;;;3.50;99.90;;;;;;5072838;28;20063;-58
2020/12/09 05:23:05;;;;;;;33.95;17.52;;;3.50;99.90;;;;;;5073001;28;20028;-60
2020/12/09 05:25:36;;;;;;;25.13;15.90;;;3.50;99.90;;;;;;5072866;28;20078;-60
2020/12/09 05:28:02;;;;;;;28.58;17.75;;;3.60;99.90;;;;;;5073020;28;20119;-59
2020/12/09 05:30:57;;;;;;;29.15;17.38;;;3.60;99.90;;;;;;5091157;28;20023;-67
2020/12/09 05:33:31;;;;;;;30.95;18.20;;;3.60;99.90;;;;;;5060347;28;20075;-59
2020/12/09 05:36:02;;;;;;;27.63;16.92;;;3.70;99.90;;;;;;5073172;28;20023;-59
2020/12/09 05:38:29;;;;;;;31.42;18.05;;;3.60;99.90;;;;;;5072766;28;20028;-59
2020/12/09 05:40:55;;;;;;;28.63;17.90;;;3.60;99.90;;;;;;5072756;28;20024;-59
2020/12/09 05:43:22;;;;;;;26.73;16.60;;;3.60;99.90;;;;;;5072356;28;20036;-60
2020/12/09 05:45:48;;;;;;;30.00;17.70;;;3.60;99.90;;;;;;5072382;28;20028;-58
2020/12/09 05:48:17;;;;;;;28.60;18.00;;;3.70;99.90;;;;;;5072922;28;20043;-58
2020/12/09 05:50:48;;;;;;;27.85;18.30;;;3.60;99.90;;;;;;5072095;28;20050;-60
2020/12/09 05:53:25;;;;;;;26.35;16.48;;;3.70;99.90;;;;;;5072768;28;20032;-59
2020/12/09 05:55:55;;;;;;;31.80;18.45;;;3.70;99.90;;;;;;5072070;28;20099;-59
2020/12/09 05:58:27;;;;;;;29.30;18.55;;;3.70;99.90;;;;;;5108116;28;20035;-59
2020/12/09 06:01:09;;;;;;;26.27;17.00;;;3.60;99.90;;;;;;5092046;28;20031;-59
2020/12/09 06:03:36;;;;;;;26.98;16.50;;;3.80;99.90;;;;;;5092232;28;20128;-58
2020/12/09 06:06:12;;;;;;;27.55;16.63;;;3.90;99.90;;;;;;5111200;28;20479;-59
2020/12/09 06:08:42;;;;;;;30.90;17.27;;;4.00;99.90;;;;;;5092163;28;20032;-58
2020/12/09 06:11:09;;;;;;;26.63;17.27;;;3.90;99.90;;;;;;5092605;28;20112;-58
2020/12/09 06:13:35;;;;;;;27.67;16.77;;;3.90;99.90;;;;;;5091621;28;20039;-59
2020/12/09 06:16:03;;;;;;;29.40;17.75;;;3.90;99.90;;;;;;5092620;28;20027;-58
2020/12/09 06:18:31;;;;;;;31.13;17.25;;;3.90;99.90;;;;;;5095604;28;20040;-60
2020/12/09 06:20:58;;;;;;;27.92;18.58;;;3.90;99.90;;;;;;5096371;28;20020;-58
2020/12/09 06:23:27;;;;;;;30.27;18.42;;;3.70;99.90;;;;;;5096602;28;20072;-59
2020/12/09 06:25:56;;;;;;;29.10;18.02;;;3.70;99.90;;;;;;5095658;28;20671;-60
2020/12/09 06:28:24;;;;;;;28.75;17.63;;;3.70;99.90;;;;;;5096346;28;20086;-58
2020/12/09 06:30:51;;;;;;;33.70;18.27;;;3.60;99.90;;;;;;5113948;28;20035;-58
2020/12/09 06:33:32;;;;;;;30.48;18.35;;;3.50;99.90;;;;;;5095837;28;20114;-58
2020/12/09 06:36:23;;;;;;;33.63;17.58;;;3.40;99.90;;;;;;5113955;28;20035;-60
2020/12/09 06:39:17;;;;;;;35.08;18.33;;;3.40;99.90;;;;;;5095533;28;20080;-61
2020/12/09 06:41:58;;;;;;;1999.90;333.90;;;3.30;99.90;;;;;;5114212;28;20027;-65
2020/12/09 06:44:29;;;;;;;71.55;35.10;;;3.90;99.90;;;;;;5095735;28;20043;-66
2020/12/09 06:46:57;;;;;;;34.10;21.47;;;4.60;99.90;;;;;;5095566;28;20047;-59
2020/12/09 06:49:29;;;;;;;31.98;19.52;;;4.00;99.90;;;;;;5094730;28;20072;-59
2020/12/09 06:51:56;;;;;;;;;;;3.60;99.90;;;;;;5113509;28;20625;-58
2020/12/09 06:54:21;;;;;;;29.35;18.05;;;3.50;99.90;;;;;;5113962;28;19911;-59
2020/12/09 06:57:22;;;;;;;28.92;18.25;;;3.50;99.90;;;;;;5113067;28;20028;-59
2020/12/09 06:59:49;;;;;;;31.77;18.00;;;3.30;99.90;;;;;;5094348;28;20119;-59
2020/12/09 07:02:28;;;;;;;29.42;18.63;;;3.30;99.90;;;;;;5095593;28;20020;-59
2020/12/09 07:04:54;;;;;;;28.33;17.70;;;3.30;99.90;;;;;;5113492;28;20280;-59
2020/12/09 07:07:32;;;;;;;33.40;19.80;;;3.30;99.90;;;;;;5095501;28;20473;-59
2020/12/09 07:09:59;;;;;;;33.22;19.02;;;3.40;99.90;;;;;;5113300;28;20053;-59
2020/12/09 07:12:26;;;;;;;28.55;17.90;;;3.20;99.90;;;;;;5113882;28;20524;-59
2020/12/09 07:14:57;;;;;;;31.67;18.67;;;3.20;99.90;;;;;;5094247;28;20023;-59
2020/12/09 07:17:26;;;;;;;26.80;18.10;;;3.10;99.90;;;;;;5095507;28;20035;-59
2020/12/09 07:19:53;;;;;;;31.92;18.52;;;3.20;99.90;;;;;;5113216;28;20253;-60
2020/12/09 07:22:19;;;;;;;29.27;17.95;;;3.10;99.90;;;;;;5095013;28;20119;-59
2020/12/09 07:24:46;;;;;;;32.55;18.38;;;3.00;99.90;;;;;;5093781;28;20417;-59
2020/12/09 07:27:12;;;;;;;32.90;17.73;;;3.00;99.90;;;;;;5094900;28;20062;-60
2020/12/09 07:29:44;;;;;;;34.65;18.05;;;3.00;99.90;;;;;;5093376;28;20027;-61
2020/12/09 07:32:10;;;;;;;29.15;17.90;;;3.00;99.90;;;;;;5086509;28;20039;-59
2020/12/09 07:34:59;;;;;;;32.92;20.20;;;3.00;99.90;;;;;;5073885;28;20036;-67
2020/12/09 07:37:27;;;;;;;33.33;19.45;;;2.90;99.90;;;;;;5071813;28;20029;-59
2020/12/09 07:39:54;;;;;;;33.25;19.10;;;2.90;99.90;;;;;;5074341;28;20016;-58
2020/12/09 07:42:22;;;;;;;37.45;21.52;;;2.90;99.90;;;;;;5075389;28;20081;-59
2020/12/09 07:44:49;;;;;;;36.72;21.35;;;2.70;99.90;;;;;;5075480;28;20400;-60
2020/12/09 07:47:27;;;;;;;39.35;19.80;;;2.70;99.90;;;;;;5077250;28;20036;-61
2020/12/09 07:50:05;;;;;;;32.13;19.60;;;2.80;99.90;;;;;;5081532;28;20128;-60
2020/12/09 07:52:34;;;;;;;32.85;20.05;;;2.90;99.90;;;;;;5086822;28;20020;-60
2020/12/09 07:55:07;;;;;;;33.22;18.23;;;2.90;99.90;;;;;;5094990;28;20032;-60
2020/12/09 07:57:37;;;;;;;35.35;19.90;;;3.10;99.90;;;;;;5084743;28;20043;-60
2020/12/09 08:00:11;;;;;;;30.55;18.85;;;3.00;99.90;;;;;;5092274;28;20028;-60
2020/12/09 08:02:38;;;;;;;35.90;19.60;;;3.10;99.90;;;;;;5082110;28;20050;-66
2020/12/09 08:05:15;;;;;;;37.15;18.88;;;3.20;99.90;;;;;;5087458;28;20084;-59
2020/12/09 08:07:50;;;;;;;30.27;17.83;;;3.00;99.90;;;;;;5093278;28;20028;-60
2020/12/09 08:10:21;;;;;;;32.97;18.70;;;3.00;99.90;;;;;;5093075;28;20043;-59
2020/12/09 08:12:46;;;;;;;34.65;19.25;;;3.20;99.90;;;;;;5079916;28;20024;-59
2020/12/09 08:15:12;;;;;;;31.10;18.92;;;3.40;99.90;;;;;;5088614;28;20028;-59
2020/12/09 08:17:45;;;;;;;30.67;19.02;;;3.30;99.90;;;;;;5075845;28;20081;-65
2020/12/09 08:20:13;;;;;;;30.95;18.33;;;3.70;99.90;;;;;;5092976;28;20044;-59
2020/12/09 08:23:02;;;;;;;29.90;18.35;;;3.90;99.90;;;;;;5081408;28;20155;-66
2020/12/09 08:25:30;;;;;;;31.35;17.73;;;4.00;99.90;;;;;;5104011;28;20329;-59
2020/12/09 08:28:04;;;;;;;29.15;18.60;;;4.40;99.90;;;;;;5076695;28;20028;-62
2020/12/09 08:30:30;;;;;;;26.88;16.90;;;5.10;99.90;;;;;;5080018;28;20027;-58
2020/12/09 08:33:05;;;;;;;25.88;17.40;;;5.20;99.90;;;;;;5072343;28;20123;-58
2020/12/09 08:35:45;;;;;;;30.85;17.55;;;5.50;99.90;;;;;;5073256;28;20052;-58
2020/12/09 08:38:19;;;;;;;29.77;18.08;;;5.80;99.90;;;;;;5092007;28;20054;-59
2020/12/09 08:40:49;;;;;;;31.25;17.45;;;5.90;99.90;;;;;;5070756;28;20050;-58
2020/12/09 08:43:15;;;;;;;28.30;16.92;;;6.10;99.90;;;;;;5072396;28;20028;-58
2020/12/09 08:45:43;;;;;;;24.50;16.02;;;6.20;99.90;;;;;;5084462;28;20020;-64
2020/12/09 08:48:09;;;;;;;25.80;17.38;;;6.60;99.90;;;;;;5111641;28;20028;-59
2020/12/09 08:50:34;;;;;;;30.35;17.42;;;6.60;99.90;;;;;;5092959;28;20040;-59
2020/12/09 08:53:00;;;;;;;25.70;16.63;;;7.00;99.90;;;;;;5111245;28;20034;-59
2020/12/09 08:55:26;;;;;;;27.63;17.25;;;7.50;99.50;;;;;;5080690;28;20036;-59
2020/12/09 08:57:52;;;;;;;30.65;19.58;;;8.00;99.00;;;;;;5091943;28;20028;-59
2020/12/09 09:00:18;;;;;;;26.63;16.67;;;8.60;96.60;;;;;;5091562;28;20042;-61
2020/12/09 09:02:45;;;;;;;26.23;16.95;;;8.60;96.10;;;;;;5090000;28;20024;-67
2020/12/09 09:05:11;;;;;;;26.55;16.60;;;9.20;95.50;;;;;;5074830;28;20024;-59
2020/12/09 09:07:38;;;;;;;30.88;18.23;;;9.10;95.60;;;;;;5080937;28;20080;-60
2020/12/09 09:10:04;;;;;;;26.60;16.42;;;9.80;94.60;;;;;;5074619;28;20342;-59
2020/12/09 09:12:29;;;;;;;24.23;16.58;;;10.20;93.70;;;;;;5110409;28;20028;-59
2020/12/09 09:14:56;;;;;;;24.92;15.82;;;10.80;92.90;;;;;;5087068;28;20046;-58
2020/12/09 09:17:22;;;;;;;22.27;15.77;;;11.00;91.50;;;;;;5091387;28;20028;-65
2020/12/09 09:19:48;;;;;;;24.40;15.75;;;10.60;92.00;;;;;;5070173;28;20422;-62
2020/12/09 09:22:14;;;;;;;21.92;15.15;;;10.60;91.60;;;;;;5071641;28;20051;-59
2020/12/09 09:24:39;;;;;;;22.13;15.77;;;10.30;93.70;;;;;;5076397;28;20457;-58
2020/12/09 09:27:10;;;;;;;24.75;15.60;;;10.50;92.70;;;;;;5071449;28;20032;-58
2020/12/09 09:29:37;;;;;;;22.45;15.45;;;10.20;93.10;;;;;;5072489;28;20181;-58
2020/12/09 09:32:04;;;;;;;25.15;16.52;;;10.20;92.60;;;;;;5071593;28;20055;-59
2020/12/09 09:34:30;;;;;;;24.80;16.15;;;10.90;93.00;;;;;;5090794;28;20181;-58
2020/12/09 09:36:56;;;;;;;24.88;16.02;;;11.10;91.70;;;;;;5071023;28;20025;-58
2020/12/09 09:39:22;;;;;;;21.05;15.25;;;11.00;91.80;;;;;;5071950;28;20452;-58
2020/12/09 09:41:48;;;;;;;19.88;15.38;;;11.40;90.50;;;;;;5071028;28;20027;-58
2020/12/09 09:44:14;;;;;;;24.95;15.77;;;11.60;90.30;;;;;;5071843;28;20109;-59
2020/12/09 09:46:39;;;;;;;22.65;15.73;;;12.30;89.20;;;;;;5077674;28;20031;-61
2020/12/09 09:49:05;;;;;;;25.80;17.23;;;12.50;87.00;;;;;;5091787;28;20421;-58
2020/12/09 09:51:31;;;;;;;22.40;15.52;;;12.80;85.00;;;;;;5109573;28;20063;-59
2020/12/09 09:53:57;;;;;;;24.95;15.68;;;13.30;85.60;;;;;;5099946;28;20075;-60
2020/12/09 09:56:22;;;;;;;24.38;16.33;;;13.60;81.00;;;;;;5108496;28;20481;-60
2020/12/09 09:58:48;;;;;;;21.80;15.63;;;13.80;93.80;;;;;;5083260;28;20040;-61
2020/12/09 10:01:15;;;;;;;21.00;16.13;;;13.50;79.20;;;;;;5092508;28;20034;-59
2020/12/09 10:03:41;;;;;;;22.30;16.25;;;13.10;82.00;;;;;;5110817;28;20077;-60
2020/12/09 10:06:07;;;;;;;20.08;16.35;;;13.10;80.70;;;;;;5091222;28;20089;-60
2020/12/09 10:08:33;;;;;;;25.38;16.48;;;12.60;83.10;;;;;;5091028;28;20035;-59
2020/12/09 10:11:05;;;;;;;29.50;17.58;;;11.70;86.80;;;;;;5090488;28;20027;-60
2020/12/09 10:13:31;;;;;;;25.38;16.80;;;11.10;89.20;;;;;;5090867;28;20023;-58
2020/12/09 10:15:57;;;;;;;26.98;17.45;;;10.90;90.50;;;;;;5100775;28;20095;-59
2020/12/09 10:18:23;;;;;;;27.83;18.00;;;9.90;92.40;;;;;;5084108;28;20039;-59
2020/12/09 10:20:49;;;;;;;25.50;18.08;;;9.30;94.10;;;;;;5097049;28;20129;-59
2020/12/09 10:23:15;;;;;;;27.63;18.83;;;8.50;96.10;;;;;;5080910;28;20031;-58
2020/12/09 10:25:41;;;;;;;30.27;18.92;;;8.00;97.60;;;;;;5088732;28;20027;-59
2020/12/09 10:28:07;;;;;;;28.50;18.60;;;7.50;98.50;;;;;;5090917;28;20111;-59
2020/12/09 10:30:32;;;;;;;25.90;18.02;;;7.30;99.10;;;;;;5087920;28;20024;-57
2020/12/09 10:32:58;;;;;;;31.02;18.92;;;7.00;99.70;;;;;;5077782;28;20024;-58
2020/12/09 10:35:24;;;;;;;29.75;19.08;;;7.40;99.90;;;;;;5099512;28;20082;-58
2020/12/09 10:37:49;;;;;;;28.55;19.33;;;6.90;99.90;;;;;;5070953;28;20034;-60
2020/12/09 10:40:15;;;;;;;30.80;19.73;;;6.80;99.90;;;;;;5106031;28;20447;-60
2020/12/09 10:42:41;;;;;;;30.45;19.80;;;6.90;99.90;;;;;;5094132;28;20130;-59
2020/12/09 10:45:08;;;;;;;35.90;20.13;;;6.50;99.90;;;;;;5082417;28;20161;-59
2020/12/09 10:47:36;;;;;;;27.90;18.42;;;6.30;99.90;;;;;;5082129;28;20027;-59
2020/12/09 10:50:03;;;;;;;29.65;18.40;;;6.10;99.90;;;;;;5090219;28;20051;-58
2020/12/09 10:52:29;;;;;;;34.20;20.45;;;6.30;99.90;;;;;;5091493;28;20035;-58
2020/12/09 10:54:54;;;;;;;27.17;18.40;;;6.40;99.90;;;;;;5109793;28;20096;-58
2020/12/09 10:57:20;;;;;;;33.72;20.52;;;6.20;99.90;;;;;;5091670;28;20449;-59
2020/12/09 10:59:46;;;;;;;32.47;20.17;;;6.30;99.90;;;;;;5091191;28;20034;-59
2020/12/09 11:02:12;;;;;;;41.58;18.95;;;6.30;99.90;;;;;;5091862;28;20118;-58
2020/12/09 11:04:38;;;;;;;34.92;20.50;;;6.40;99.90;;;;;;5094853;28;20107;-58
2020/12/09 11:07:11;;;;;;;30.13;19.90;;;6.20;99.90;;;;;;5095295;28;20020;-58
2020/12/09 11:09:39;;;;;;;31.23;20.52;;;6.20;99.90;;;;;;5095229;28;20038;-58
2020/12/09 11:12:04;;;;;;;32.47;19.23;;;6.20;99.90;;;;;;5095093;28;20024;-58
2020/12/09 11:14:33;;;;;;;31.35;20.27;;;6.20;99.90;;;;;;5095068;28;20098;-58
2020/12/09 11:17:00;;;;;;;34.50;20.15;;;6.10;99.90;;;;;;5094712;28;20019;-59
2020/12/09 11:19:26;;;;;;;31.98;20.98;;;6.00;99.90;;;;;;5095128;28;20080;-59
2020/12/09 11:21:51;;;;;;;36.33;19.52;;;6.10;99.90;;;;;;5094700;28;20027;-59
2020/12/09 11:24:17;;;;;;;34.05;20.17;;;6.00;99.90;;;;;;5095527;28;20019;-59
2020/12/09 11:26:43;;;;;;;34.95;19.58;;;5.80;99.90;;;;;;5094909;28;20119;-59
2020/12/09 11:29:09;;;;;;;35.90;20.30;;;6.10;99.90;;;;;;5094147;28;20118;-58
2020/12/09 11:31:38;;;;;;;32.75;18.60;;;6.00;99.90;;;;;;5095194;28;20412;-58
2020/12/09 11:34:04;;;;;;;30.65;19.08;;;5.90;99.90;;;;;;5094717;28;20080;-59
2020/12/09 11:36:30;;;;;;;33.67;20.17;;;5.90;99.90;;;;;;5113207;28;20375;-59
2020/12/09 11:38:56;;;;;;;33.72;20.15;;;5.90;99.90;;;;;;5094273;28;20024;-59
2020/12/09 11:41:27;;;;;;;36.55;20.95;;;6.00;99.90;;;;;;5094969;28;20160;-59
2020/12/09 11:43:56;;;;;;;40.33;21.35;;;5.90;99.90;;;;;;5093780;28;20031;-58
2020/12/09 11:46:23;;;;;;;35.22;21.58;;;5.90;99.90;;;;;;5112715;28;20110;-58
2020/12/09 11:48:49;;;;;;;38.50;20.92;;;6.00;99.90;;;;;;5094551;28;20054;-66
2020/12/09 11:51:15;;;;;;;30.20;19.73;;;6.10;99.90;;;;;;5093780;28;20066;-59
2020/12/09 11:53:42;;;;;;;30.55;19.33;;;6.20;99.90;;;;;;5094619;28;20059;-59
2020/12/09 11:56:09;;;;;;;35.47;19.80;;;6.30;99.90;;;;;;5093982;28;20052;-58
2020/12/09 11:58:34;;;;;;;31.58;20.45;;;6.30;99.90;;;;;;5094309;28;20050;-58
2020/12/09 12:01:00;;;;;;;35.70;21.17;;;6.20;99.90;;;;;;5112105;28;20468;-58
2020/12/09 12:03:28;;;;;;;45.83;24.17;;;6.00;99.90;;;;;;5112744;28;20146;-59
2020/12/09 12:05:54;;;;;;;43.45;20.98;;;5.70;99.90;;;;;;5094021;28;20028;-58
2020/12/09 12:08:20;;;;;;;38.40;20.83;;;5.70;99.90;;;;;;5094493;28;20031;-58
2020/12/09 12:10:46;;;;;;;38.15;20.65;;;5.50;99.90;;;;;;5094244;28;20043;-59
2020/12/09 12:13:12;;;;;;;40.10;21.15;;;5.60;99.90;;;;;;5112230;28;20104;-58
2020/12/09 12:15:37;;;;;;;37.50;19.60;;;5.70;99.90;;;;;;5093114;28;20124;-58
2020/12/09 12:18:03;;;;;;;46.75;21.55;;;5.80;99.90;;;;;;5111969;28;20023;-58
2020/12/09 12:20:29;;;;;;;38.78;21.05;;;5.80;99.90;;;;;;5093979;28;20491;-59
2020/12/09 12:22:55;;;;;;;35.92;20.25;;;5.50;99.90;;;;;;5093623;28;20473;-59
2020/12/09 12:25:21;;;;;;;38.00;19.33;;;5.40;99.90;;;;;;5112150;28;20024;-58
2020/12/09 12:27:46;;;;;;;39.45;21.40;;;5.50;99.90;;;;;;5092998;28;20057;-58
2020/12/09 12:30:12;;;;;;;35.75;21.65;;;5.40;99.90;;;;;;5072992;28;20416;-59
2020/12/09 12:32:39;;;;;;;34.80;20.17;;;5.40;99.90;;;;;;5073531;28;20032;-61
2020/12/09 12:35:06;;;;;;;36.28;20.73;;;5.60;99.90;;;;;;5073007;28;20027;-59
2020/12/09 12:37:32;;;;;;;35.42;21.10;;;5.80;99.90;;;;;;5091702;28;20039;-59
2020/12/09 12:39:58;;;;;;;40.20;20.52;;;5.90;99.90;;;;;;5091218;28;20055;-58